createdAt,value
2022-12-19T00:01:17.320Z,17.30
2022-12-19T00:03:44.787Z,16.40
2022-12-19T00:06:11.994Z,15.30
2022-12-19T00:08:39.047Z,16.50
2022-12-19T00:11:05.973Z,16.50
2022-12-19T00:13:40.965Z,15.60
2022-12-19T00:16:14.387Z,14.70
2022-12-19T00:18:45.800Z,14.90
2022-12-19T00:21:16.057Z,16.60
2022-12-19T00:23:43.826Z,16.10
2022-12-19T00:26:20.890Z,17.00
2022-12-19T00:28:49.745Z,17.90
2022-12-19T00:31:18.249Z,18.10
2022-12-19T00:33:46.778Z,16.70
2022-12-19T00:36:17.084Z,16.80
2022-12-19T00:38:51.421Z,16.70
2022-12-19T00:41:21.264Z,17.00
2022-12-19T00:43:48.604Z,18.80
2022-12-19T00:46:16.813Z,17.30
2022-12-19T00:48:44.337Z,18.10
2022-12-19T00:51:15.276Z,16.80
2022-12-19T00:53:43.032Z,16.20
2022-12-19T00:56:12.625Z,17.10
2022-12-19T00:58:44.957Z,16.00
2022-12-19T01:01:17.474Z,17.00
2022-12-19T01:04:04.479Z,17.20
2022-12-19T01:06:32.415Z,17.00
2022-12-19T01:09:00.254Z,17.80
2022-12-19T01:11:41.335Z,15.30
2022-12-19T01:14:08.274Z,16.90
2022-12-19T01:16:35.436Z,16.00
2022-12-19T01:19:02.512Z,16.40
2022-12-19T01:21:32.058Z,16.10
2022-12-19T01:23:59.417Z,14.80
2022-12-19T01:26:26.323Z,16.90
2022-12-19T01:28:53.201Z,16.80
2022-12-19T01:31:21.062Z,16.50
2022-12-19T01:33:47.952Z,17.10
2022-12-19T01:36:17.473Z,16.00
2022-12-19T01:38:44.324Z,17.10
2022-12-19T01:41:11.845Z,17.20
2022-12-19T01:43:59.584Z,17.70
2022-12-19T01:46:32.686Z,17.90
2022-12-19T01:49:00.722Z,18.40
2022-12-19T01:51:33.664Z,20.60
2022-12-19T01:54:06.016Z,19.90
2022-12-19T01:56:37.222Z,20.00
2022-12-19T01:59:08.644Z,20.00
2022-12-19T02:01:48.990Z,18.00
2022-12-19T02:04:22.929Z,20.00
2022-12-19T02:06:51.343Z,20.90
2022-12-19T02:09:24.531Z,21.00
2022-12-19T02:11:53.671Z,22.60
2022-12-19T02:14:21.554Z,20.20
2022-12-19T02:16:56.893Z,20.50
2022-12-19T02:20:37.026Z,19.70
2022-12-19T02:23:25.074Z,19.50
2022-12-19T02:26:12.119Z,19.00
2022-12-19T02:28:57.366Z,18.30
2022-12-19T02:31:31.186Z,18.40
2022-12-19T02:34:08.844Z,18.00
2022-12-19T02:36:45.445Z,18.80
2022-12-19T02:39:19.965Z,17.00
2022-12-19T02:41:51.590Z,17.80
2022-12-19T02:44:25.735Z,18.40
2022-12-19T02:46:54.084Z,18.70
2022-12-19T02:49:31.103Z,19.70
2022-12-19T02:51:59.343Z,21.00
2022-12-19T02:54:27.056Z,18.80
2022-12-19T02:57:01.494Z,18.90
2022-12-19T02:59:48.251Z,18.30
2022-12-19T03:02:27.101Z,18.00
2022-12-19T03:05:00.134Z,17.90
2022-12-19T03:07:37.061Z,18.00
2022-12-19T03:10:13.357Z,18.70
2022-12-19T03:12:49.638Z,19.00
2022-12-19T03:15:17.680Z,18.60
2022-12-19T03:17:45.304Z,18.40
2022-12-19T03:20:21.061Z,16.70
2022-12-19T03:22:48.412Z,18.20
2022-12-19T03:25:16.036Z,16.50
2022-12-19T03:27:45.411Z,17.60
2022-12-19T03:30:15.912Z,17.00
2022-12-19T03:32:47.562Z,17.70
2022-12-19T03:35:19.708Z,16.70
2022-12-19T03:37:49.238Z,17.40
2022-12-19T03:40:20.501Z,17.20
2022-12-19T03:43:06.564Z,18.10
2022-12-19T03:48:09.339Z,16.80
2022-12-19T03:50:46.294Z,18.30
2022-12-19T03:53:24.148Z,17.70
2022-12-19T03:55:55.863Z,18.10
2022-12-19T03:58:29.598Z,17.90
2022-12-19T04:00:57.637Z,19.20
2022-12-19T04:03:25.738Z,18.70
2022-12-19T04:05:54.356Z,17.80
2022-12-19T04:08:24.013Z,18.30
2022-12-19T04:10:55.505Z,18.10
2022-12-19T04:13:28.652Z,16.60
2022-12-19T04:16:05.056Z,17.30
2022-12-19T04:18:34.718Z,17.80
2022-12-19T04:21:09.770Z,17.50
2022-12-19T04:23:41.285Z,17.30
2022-12-19T04:26:12.385Z,18.20
2022-12-19T04:28:44.925Z,17.30
2022-12-19T04:31:14.858Z,17.50
2022-12-19T04:33:42.031Z,16.80
2022-12-19T04:36:11.352Z,17.40
2022-12-19T04:38:38.537Z,17.40
2022-12-19T04:41:05.663Z,17.30
2022-12-19T04:43:32.811Z,17.70
2022-12-19T04:46:00.379Z,18.20
2022-12-19T04:48:28.032Z,18.80
2022-12-19T04:50:56.313Z,18.70
2022-12-19T04:53:23.467Z,17.90
2022-12-19T04:55:50.610Z,18.90
2022-12-19T04:58:21.872Z,18.00
2022-12-19T05:00:49.638Z,18.90
2022-12-19T05:03:16.873Z,19.30
2022-12-19T05:05:44.037Z,20.40
2022-12-19T05:08:11.586Z,17.20
2022-12-19T05:10:40.212Z,18.00
2022-12-19T05:13:09.326Z,18.60
2022-12-19T05:15:36.484Z,19.00
2022-12-19T05:18:04.235Z,18.20
2022-12-19T05:20:31.548Z,18.40
2022-12-19T05:23:02.964Z,18.90
2022-12-19T05:25:31.680Z,19.50
2022-12-19T05:27:59.024Z,19.40
2022-12-19T05:30:26.183Z,20.70
2022-12-19T05:32:53.325Z,18.80
2022-12-19T05:35:20.715Z,19.40
2022-12-19T05:37:48.167Z,20.80
2022-12-19T05:40:16.175Z,18.60
2022-12-19T05:42:43.461Z,19.30
2022-12-19T05:45:12.905Z,19.50
2022-12-19T05:47:40.024Z,18.80
2022-12-19T05:50:08.301Z,18.90
2022-12-19T05:52:35.526Z,19.30
2022-12-19T05:55:02.764Z,19.90
2022-12-19T05:57:29.921Z,18.00
2022-12-19T05:59:57.027Z,18.40
2022-12-19T06:02:24.705Z,20.20
2022-12-19T06:04:52.218Z,19.20
2022-12-19T06:07:21.040Z,20.50
2022-12-19T06:09:48.597Z,19.30
2022-12-19T06:12:15.845Z,18.70
2022-12-19T06:14:43.009Z,19.80
2022-12-19T06:17:10.291Z,18.60
2022-12-19T06:19:37.435Z,18.30
2022-12-19T06:22:04.623Z,20.80
2022-12-19T06:24:31.705Z,20.20
2022-12-19T06:26:58.998Z,20.50
2022-12-19T06:29:26.115Z,20.50
2022-12-19T06:31:53.270Z,19.70
2022-12-19T06:34:46.939Z,19.10
2022-12-19T06:37:08.620Z,19.90
2022-12-19T06:39:35.967Z,20.30
2022-12-19T06:42:32.412Z,21.10
2022-12-19T06:44:59.929Z,20.70
2022-12-19T06:47:27.975Z,20.00
2022-12-19T06:49:55.194Z,21.30
2022-12-19T06:52:23.555Z,18.90
2022-12-19T06:54:50.954Z,20.60
2022-12-19T06:57:19.407Z,19.10
2022-12-19T06:59:46.833Z,22.70
2022-12-19T07:02:27.349Z,19.50
2022-12-19T07:05:01.794Z,20.50
2022-12-19T07:07:31.265Z,20.90
2022-12-19T07:09:59.274Z,20.30
2022-12-19T07:12:27.611Z,21.10
2022-12-19T07:14:55.284Z,22.20
2022-12-19T07:17:23.597Z,20.10
2022-12-19T07:19:52.139Z,19.20
2022-12-19T07:22:19.449Z,20.40
2022-12-19T07:24:47.048Z,21.00
2022-12-19T07:27:15.324Z,20.20
2022-12-19T07:29:42.677Z,21.10
2022-12-19T07:32:10.027Z,21.30
2022-12-19T07:34:37.233Z,20.30
2022-12-19T07:37:04.362Z,19.30
2022-12-19T07:39:31.987Z,21.00
2022-12-19T07:41:59.289Z,20.60
2022-12-19T07:44:36.529Z,19.80
2022-12-19T07:47:03.756Z,20.60
2022-12-19T07:49:31.437Z,20.80
2022-12-19T07:51:58.897Z,21.10
2022-12-19T07:54:26.135Z,20.40
2022-12-19T07:56:53.839Z,19.90
2022-12-19T07:59:27.156Z,20.50
2022-12-19T08:01:57.248Z,20.50
2022-12-19T08:04:25.689Z,20.00
2022-12-19T08:06:53.037Z,21.20
2022-12-19T08:09:20.319Z,20.00
2022-12-19T08:11:47.711Z,19.20
2022-12-19T08:14:15.022Z,20.40
2022-12-19T08:17:18.165Z,19.40
2022-12-19T08:19:29.594Z,19.60
2022-12-19T08:21:56.814Z,20.50
2022-12-19T08:24:23.918Z,20.60
2022-12-19T08:26:51.314Z,20.80
2022-12-19T08:29:18.728Z,20.60
2022-12-19T08:31:46.319Z,20.10
2022-12-19T08:34:14.082Z,19.30
2022-12-19T08:36:41.744Z,21.00
2022-12-19T08:39:09.138Z,21.60
2022-12-19T08:41:36.958Z,20.80
2022-12-19T08:44:04.267Z,19.40
2022-12-19T08:46:31.526Z,20.10
2022-12-19T08:48:59.533Z,20.00
2022-12-19T08:51:27.344Z,19.70
2022-12-19T08:53:54.446Z,20.20
2022-12-19T08:56:23.979Z,19.40
2022-12-19T08:58:53.660Z,19.40
2022-12-19T09:01:26.178Z,19.50
2022-12-19T09:04:36.511Z,18.90
2022-12-19T09:06:41.675Z,20.00
2022-12-19T09:09:08.933Z,19.70
2022-12-19T09:11:48.025Z,19.70
2022-12-19T09:14:15.741Z,20.10
2022-12-19T09:16:48.588Z,20.40
2022-12-19T09:19:16.695Z,19.60
2022-12-19T09:21:44.059Z,19.80
2022-12-19T09:24:12.617Z,20.30
2022-12-19T09:26:42.151Z,20.40
2022-12-19T09:29:19.697Z,20.70
2022-12-19T09:31:53.885Z,20.30
2022-12-19T09:34:26.059Z,20.20
2022-12-19T09:37:05.682Z,19.40
2022-12-19T09:39:34.316Z,20.30
2022-12-19T09:42:19.014Z,20.10
2022-12-19T09:45:00.370Z,20.10
2022-12-19T09:47:31.114Z,19.50
2022-12-19T09:50:01.042Z,20.20
2022-12-19T09:52:34.129Z,19.90
2022-12-19T09:55:08.716Z,20.90
2022-12-19T09:57:41.970Z,18.90
2022-12-19T10:00:16.033Z,20.30
2022-12-19T10:02:48.837Z,19.20
2022-12-19T10:05:36.559Z,18.70
2022-12-19T10:08:19.078Z,19.50
2022-12-19T10:12:41.396Z,19.70
2022-12-19T10:14:01.223Z,19.40
2022-12-19T10:17:22.073Z,19.80
2022-12-19T10:19:47.415Z,19.80
2022-12-19T10:22:25.762Z,20.00
2022-12-19T10:25:12.207Z,20.80
2022-12-19T10:27:58.614Z,21.70
2022-12-19T10:30:29.080Z,19.80
2022-12-19T10:33:20.742Z,20.30
2022-12-19T10:35:54.339Z,19.50
2022-12-19T10:38:30.413Z,21.10
2022-12-19T10:41:13.645Z,20.30
2022-12-19T10:43:49.618Z,22.40
2022-12-19T10:46:22.730Z,19.30
2022-12-19T10:48:51.937Z,20.00
2022-12-19T10:51:26.562Z,20.50
2022-12-19T10:53:58.549Z,21.10
2022-12-19T10:56:36.723Z,19.70
2022-12-19T10:59:07.076Z,21.20
2022-12-19T11:01:40.003Z,19.60
2022-12-19T11:04:30.795Z,20.10
2022-12-19T11:07:18.961Z,20.20
2022-12-19T11:09:51.350Z,20.60
2022-12-19T11:17:00.325Z,21.10
2022-12-19T11:19:27.866Z,18.70
2022-12-19T11:24:30.022Z,18.80
2022-12-19T11:27:08.379Z,19.40
2022-12-19T11:29:39.636Z,18.90
2022-12-19T11:30:47.582Z,20.70
2022-12-19T11:32:41.241Z,20.10
2022-12-19T11:35:19.728Z,19.90
2022-12-19T11:37:55.952Z,18.80
2022-12-19T11:40:33.163Z,20.30
2022-12-19T11:43:42.522Z,20.50
2022-12-19T11:45:58.289Z,19.60
2022-12-19T11:48:33.572Z,19.30
2022-12-19T11:51:07.956Z,19.70
2022-12-19T11:53:43.477Z,20.20
2022-12-19T11:56:16.341Z,19.50
2022-12-19T11:58:48.486Z,19.60
2022-12-19T12:01:25.402Z,19.70
2022-12-19T12:04:09.876Z,19.40
2022-12-19T12:06:47.386Z,20.30
2022-12-19T12:12:28.405Z,19.50
2022-12-19T12:20:45.008Z,20.00
2022-12-19T12:21:54.295Z,19.40
2022-12-19T12:28:47.950Z,20.40
2022-12-19T12:31:44.252Z,19.30
2022-12-19T12:31:46.814Z,19.90
2022-12-19T12:31:48.509Z,18.50
2022-12-19T12:35:13.682Z,19.50
2022-12-19T12:38:00.355Z,18.50
2022-12-19T12:39:24.337Z,18.50
2022-12-19T12:42:04.825Z,18.60
2022-12-19T12:44:41.142Z,17.70
2022-12-19T12:47:20.511Z,18.50
2022-12-19T12:49:49.810Z,18.50
2022-12-19T12:52:21.136Z,18.80
2022-12-19T12:54:49.990Z,17.70
2022-12-19T12:57:37.434Z,18.00
2022-12-19T13:00:27.185Z,18.80
2022-12-19T13:02:59.461Z,17.60
2022-12-19T13:05:40.862Z,18.20
2022-12-19T13:08:34.200Z,17.70
2022-12-19T13:11:06.590Z,17.50
2022-12-19T13:13:58.022Z,17.90
2022-12-19T13:16:53.239Z,18.50
2022-12-19T13:19:27.870Z,18.60
2022-12-19T13:22:23.559Z,18.70
2022-12-19T13:24:53.249Z,19.90
2022-12-19T13:27:42.250Z,18.30
2022-12-19T13:30:20.752Z,21.10
2022-12-19T13:33:09.504Z,18.00
2022-12-19T13:36:33.308Z,18.50
2022-12-19T13:39:58.423Z,19.30
2022-12-19T13:41:58.978Z,20.20
2022-12-19T13:44:27.777Z,17.70
2022-12-19T13:46:56.457Z,20.10
2022-12-19T13:49:34.144Z,18.90
2022-12-19T13:52:04.179Z,19.50
2022-12-19T13:54:34.934Z,19.50
2022-12-19T13:57:09.729Z,19.00
2022-12-19T13:59:59.398Z,18.20
2022-12-19T14:02:34.859Z,19.20
2022-12-19T14:06:15.368Z,18.90
2022-12-19T14:08:17.844Z,19.40
2022-12-19T14:11:35.036Z,18.90
2022-12-19T14:14:10.114Z,19.70
2022-12-19T14:16:44.411Z,19.90
2022-12-19T14:19:23.625Z,19.90
2022-12-19T14:22:08.004Z,19.70
2022-12-19T14:24:38.676Z,21.20
2022-12-19T14:28:20.805Z,20.90
2022-12-19T14:30:30.971Z,20.90
2022-12-19T14:33:46.858Z,21.20
2022-12-19T14:36:07.181Z,21.20
2022-12-19T14:39:21.229Z,20.10
2022-12-19T14:42:00.355Z,21.60
2022-12-19T14:52:36.017Z,20.30
2022-12-19T14:54:07.607Z,22.00
2022-12-19T14:54:13.636Z,21.60
2022-12-19T14:54:25.924Z,19.30
2022-12-19T14:56:45.083Z,21.90
2022-12-19T14:59:04.995Z,21.50
2022-12-19T15:01:35.275Z,21.30
2022-12-19T15:04:52.258Z,21.00
2022-12-19T15:07:07.122Z,21.20
2022-12-19T15:11:04.819Z,20.90
2022-12-19T15:14:50.873Z,22.70
2022-12-19T15:16:05.687Z,22.50
2022-12-19T15:18:42.817Z,23.70
2022-12-19T15:21:12.626Z,21.30
2022-12-19T15:23:40.029Z,22.30
2022-12-19T15:26:13.172Z,24.30
2022-12-19T15:28:43.224Z,23.40
2022-12-19T15:31:24.598Z,22.90
2022-12-19T15:36:39.226Z,22.90
2022-12-19T15:39:06.627Z,24.60
2022-12-19T15:41:34.239Z,23.60
2022-12-19T15:44:04.826Z,24.10
2022-12-19T15:46:33.954Z,25.00
2022-12-19T15:49:01.189Z,24.70
2022-12-19T15:51:28.293Z,25.30
2022-12-19T15:54:08.914Z,24.60
2022-12-19T15:56:41.905Z,26.30
2022-12-19T15:59:20.817Z,27.40
2022-12-19T16:01:48.340Z,24.80
2022-12-19T16:04:16.454Z,25.40
2022-12-19T16:06:44.241Z,24.00
2022-12-19T16:09:22.064Z,26.20
2022-12-19T16:11:49.471Z,25.70
2022-12-19T16:14:16.717Z,24.00
2022-12-19T16:16:55.795Z,23.40
2022-12-19T16:19:31.461Z,23.80
2022-12-19T16:22:00.504Z,24.40
2022-12-19T16:24:27.659Z,25.80
2022-12-19T16:26:58.600Z,26.20
2022-12-19T16:29:27.878Z,25.20
2022-12-19T16:31:55.478Z,26.70
2022-12-19T16:34:25.413Z,24.40
2022-12-19T16:36:54.324Z,25.80
2022-12-19T16:39:21.454Z,24.30
2022-12-19T16:41:48.760Z,26.30
2022-12-19T16:44:20.007Z,26.30
2022-12-19T16:46:50.896Z,25.00
2022-12-19T16:49:24.055Z,26.00
2022-12-19T16:51:52.177Z,24.70
2022-12-19T16:54:20.382Z,28.30
2022-12-19T16:56:51.897Z,26.60
2022-12-19T16:59:22.233Z,27.20
2022-12-19T17:01:51.193Z,27.20
2022-12-19T17:04:20.600Z,25.80
2022-12-19T17:06:47.977Z,27.60
2022-12-19T17:09:17.956Z,24.80
2022-12-19T17:11:49.127Z,25.30
2022-12-19T17:14:20.057Z,26.70
2022-12-19T17:16:47.481Z,27.80
2022-12-19T17:19:21.387Z,26.40
2022-12-19T17:21:49.464Z,26.60
2022-12-19T17:24:17.707Z,26.70
2022-12-19T17:26:45.099Z,27.30
2022-12-19T17:29:12.673Z,27.30
2022-12-19T17:31:41.116Z,27.10
2022-12-19T17:34:13.733Z,26.00
2022-12-19T17:36:40.939Z,26.90
2022-12-19T17:39:18.759Z,26.40
2022-12-19T17:41:46.155Z,26.60
2022-12-19T17:44:13.398Z,27.60
2022-12-19T17:46:40.741Z,28.10
2022-12-19T17:49:15.980Z,26.00
2022-12-19T17:51:52.465Z,26.70
2022-12-19T17:54:20.139Z,28.20
2022-12-19T17:56:47.843Z,28.60
2022-12-19T17:59:15.415Z,26.70
2022-12-19T18:01:43.796Z,30.20
2022-12-19T18:04:15.677Z,24.90
2022-12-19T18:06:43.355Z,26.30
2022-12-19T18:09:21.399Z,26.20
2022-12-19T18:11:48.516Z,28.00
2022-12-19T18:14:16.331Z,29.60
2022-12-19T18:16:44.359Z,28.10
2022-12-19T18:19:19.323Z,28.20
2022-12-19T18:21:46.613Z,29.70
2022-12-19T18:24:14.949Z,28.00
2022-12-19T18:26:42.249Z,29.30
2022-12-19T18:29:09.887Z,30.40
2022-12-19T18:31:42.430Z,31.50
2022-12-19T18:34:19.084Z,30.40
2022-12-19T18:36:46.466Z,27.20
2022-12-19T18:39:22.824Z,27.80
2022-12-19T18:44:18.709Z,27.70
2022-12-19T18:46:47.161Z,28.50
2022-12-19T18:49:18.272Z,28.80
2022-12-19T18:51:45.894Z,29.60
2022-12-19T18:54:17.804Z,27.90
2022-12-19T18:56:45.031Z,27.40
2022-12-19T18:59:12.458Z,28.90
2022-12-19T19:01:43.287Z,27.80
2022-12-19T19:04:13.332Z,28.70
2022-12-19T19:06:48.566Z,27.40
2022-12-19T19:09:20.346Z,27.00
2022-12-19T19:12:06.667Z,29.00
2022-12-19T19:14:34.463Z,27.60
2022-12-19T19:17:03.318Z,27.10
2022-12-19T19:19:30.895Z,28.30
2022-12-19T19:21:58.288Z,28.30
2022-12-19T19:24:26.151Z,27.50
2022-12-19T19:26:53.657Z,28.20
2022-12-19T19:29:20.766Z,29.70
2022-12-19T19:31:51.114Z,28.90
2022-12-19T19:34:24.459Z,27.90
2022-12-19T19:36:56.208Z,29.00
2022-12-19T19:39:24.208Z,27.80
2022-12-19T19:41:51.501Z,28.50
2022-12-19T19:44:18.589Z,31.30
2022-12-19T19:46:46.320Z,29.90
2022-12-19T19:49:13.539Z,28.90
2022-12-19T19:51:40.711Z,30.10
2022-12-19T19:54:08.290Z,30.90
2022-12-19T19:56:35.656Z,29.00
2022-12-19T19:59:03.064Z,28.20
2022-12-19T20:01:30.610Z,30.40
2022-12-19T20:03:58.277Z,30.80
2022-12-19T20:06:25.717Z,26.70
2022-12-19T20:08:53.694Z,29.30
2022-12-19T20:11:21.075Z,29.70
2022-12-19T20:13:48.505Z,28.70
2022-12-19T20:16:18.104Z,29.00
2022-12-19T20:18:50.243Z,30.60
2022-12-19T20:21:18.487Z,30.10
2022-12-19T20:23:46.150Z,30.20
2022-12-19T20:26:15.686Z,31.70
2022-12-19T20:28:48.361Z,29.50
2022-12-19T20:31:16.757Z,28.50
2022-12-19T20:33:45.174Z,29.70
2022-12-19T20:36:15.502Z,32.90
2022-12-19T20:38:42.821Z,31.90
2022-12-19T20:41:10.555Z,31.00
2022-12-19T20:43:38.884Z,31.00
2022-12-19T20:46:08.075Z,31.40
2022-12-19T20:48:35.424Z,30.60
2022-12-19T20:51:04.726Z,27.10
2022-12-19T20:53:31.993Z,30.60
2022-12-19T20:56:01.730Z,28.90
2022-12-19T20:58:30.443Z,29.80
2022-12-19T21:01:03.763Z,29.20
2022-12-19T21:03:31.329Z,28.70
2022-12-19T21:05:59.067Z,29.70
2022-12-19T21:08:27.069Z,30.70
2022-12-19T21:10:55.212Z,29.20
2022-12-19T21:13:23.359Z,28.80
2022-12-19T21:15:54.944Z,29.60
2022-12-19T21:18:22.198Z,30.80
2022-12-19T21:20:50.724Z,31.00
2022-12-19T21:23:18.122Z,30.20
2022-12-19T21:25:45.593Z,29.60
2022-12-19T21:28:12.943Z,30.60
2022-12-19T21:30:40.290Z,29.80
2022-12-19T21:33:08.359Z,30.30
2022-12-19T21:35:39.078Z,30.20
2022-12-19T21:38:06.572Z,29.90
2022-12-19T21:40:36.787Z,29.30
2022-12-19T21:43:09.784Z,27.90
2022-12-19T21:45:39.294Z,29.00
2022-12-19T21:48:07.153Z,31.00
2022-12-19T21:50:38.664Z,29.40
2022-12-19T21:53:06.175Z,28.70
2022-12-19T21:55:33.676Z,27.40
2022-12-19T21:58:02.040Z,29.30
2022-12-19T22:00:29.382Z,28.90
2022-12-19T22:03:13.474Z,28.40
2022-12-19T22:05:41.958Z,29.40
2022-12-19T22:08:10.439Z,28.50
2022-12-19T22:10:38.948Z,29.00
2022-12-19T22:13:06.192Z,29.90
2022-12-19T22:15:33.295Z,29.70
2022-12-19T22:18:00.656Z,30.10
2022-12-19T22:20:27.824Z,30.70
2022-12-19T22:22:54.933Z,28.40
2022-12-19T22:25:25.290Z,29.00
2022-12-19T22:27:56.043Z,29.50
2022-12-19T22:30:23.549Z,30.10
2022-12-19T22:32:50.737Z,28.00
2022-12-19T22:35:18.405Z,28.50
2022-12-19T22:37:45.666Z,30.70
2022-12-19T22:40:14.441Z,27.50
2022-12-19T22:42:41.841Z,29.80
2022-12-19T22:45:11.669Z,29.40
2022-12-19T22:47:41.500Z,29.00
2022-12-19T22:50:11.622Z,27.10
2022-12-19T22:52:39.460Z,28.00
2022-12-19T22:55:07.953Z,27.10
2022-12-19T22:57:35.421Z,26.80
2022-12-19T23:00:02.805Z,25.30
2022-12-19T23:02:30.319Z,26.20
2022-12-19T23:04:58.030Z,26.50
2022-12-19T23:07:25.352Z,25.10
2022-12-19T23:09:52.771Z,27.00
2022-12-19T23:12:20.202Z,26.80
2022-12-19T23:14:47.344Z,28.70
2022-12-19T23:17:14.558Z,26.80
2022-12-19T23:19:41.875Z,26.80
2022-12-19T23:22:09.405Z,28.90
2022-12-19T23:24:37.082Z,26.50
2022-12-19T23:27:05.261Z,27.90
2022-12-19T23:29:32.690Z,27.70
2022-12-19T23:32:00.006Z,28.10
2022-12-19T23:34:27.314Z,26.50
2022-12-19T23:37:10.707Z,25.70
2022-12-19T23:39:39.027Z,27.00
2022-12-19T23:42:06.646Z,27.00
2022-12-19T23:44:34.306Z,26.30
2022-12-19T23:47:03.897Z,27.70
2022-12-19T23:49:31.763Z,26.50
2022-12-19T23:51:58.902Z,27.90
2022-12-19T23:54:26.193Z,27.70
2022-12-19T23:56:53.644Z,27.60
2022-12-19T23:59:20.906Z,27.20
